createdAt,value
2023-01-22T00:01:09.912Z,1.74
2023-01-22T00:03:37.208Z,1.59
2023-01-22T00:06:05.997Z,1.64
2023-01-22T00:08:34.147Z,1.85
2023-01-22T00:11:02.072Z,1.64
2023-01-22T00:13:29.945Z,1.78
2023-01-22T00:15:58.363Z,1.65
2023-01-22T00:18:26.793Z,1.76
2023-01-22T00:20:55.276Z,1.82
2023-01-22T00:23:23.880Z,1.84
2023-01-22T00:26:04.211Z,1.76
2023-01-22T00:28:31.946Z,1.76
2023-01-22T00:31:05.025Z,1.82
2023-01-22T00:33:33.856Z,1.60
2023-01-22T00:36:06.640Z,1.83
2023-01-22T00:38:34.595Z,1.70
2023-01-22T00:41:03.816Z,1.85
2023-01-22T00:43:33.589Z,1.86
2023-01-22T00:46:01.453Z,1.64
2023-01-22T00:48:28.624Z,1.85
2023-01-22T00:50:56.095Z,1.50
2023-01-22T00:53:23.562Z,1.47
2023-01-22T00:55:58.764Z,1.67
2023-01-22T00:58:27.853Z,1.64
2023-01-22T01:00:55.817Z,1.34
2023-01-22T01:03:31.375Z,1.78
2023-01-22T01:06:18.114Z,1.68
2023-01-22T01:08:47.822Z,1.70
2023-01-22T01:11:23.862Z,1.80
2023-01-22T01:13:52.683Z,1.70
2023-01-22T01:16:24.233Z,1.78
2023-01-22T01:18:51.374Z,1.61
2023-01-22T01:21:19.309Z,1.45
2023-01-22T01:23:46.606Z,1.38
2023-01-22T01:26:16.612Z,1.61
2023-01-22T01:28:45.443Z,1.67
2023-01-22T01:31:16.658Z,1.25
2023-01-22T01:33:44.790Z,1.52
2023-01-22T01:36:35.329Z,1.68
2023-01-22T01:39:06.996Z,1.52
2023-01-22T01:41:34.132Z,1.74
2023-01-22T01:44:15.575Z,1.39
2023-01-22T01:46:54.046Z,1.33
2023-01-22T01:49:34.784Z,1.36
2023-01-22T01:52:11.969Z,1.62
2023-01-22T01:54:44.716Z,1.43
2023-01-22T01:57:18.512Z,1.39
2023-01-22T01:59:48.229Z,1.47
2023-01-22T02:02:15.824Z,1.48
2023-01-22T02:04:42.978Z,1.50
2023-01-22T02:07:10.264Z,1.43
2023-01-22T02:09:37.692Z,1.54
2023-01-22T02:12:05.556Z,1.58
2023-01-22T02:14:39.777Z,1.38
2023-01-22T02:17:15.024Z,1.25
2023-01-22T02:19:43.925Z,1.44
2023-01-22T02:22:29.040Z,1.34
2023-01-22T02:24:56.912Z,1.58
2023-01-22T02:27:24.635Z,1.54
2023-01-22T02:29:51.997Z,1.54
2023-01-22T02:32:19.242Z,1.24
2023-01-22T02:34:46.410Z,1.25
2023-01-22T02:37:13.703Z,1.48
2023-01-22T02:39:41.000Z,1.54
2023-01-22T02:42:09.515Z,1.52
2023-01-22T02:44:36.680Z,1.57
2023-01-22T02:47:04.002Z,1.68
2023-01-22T02:49:31.355Z,1.54
2023-01-22T02:51:58.511Z,1.41
2023-01-22T02:54:25.733Z,1.50
2023-01-22T02:56:52.871Z,1.53
2023-01-22T02:59:20.059Z,1.27
2023-01-22T03:01:47.215Z,1.47
2023-01-22T03:04:14.391Z,1.42
2023-01-22T03:06:45.405Z,1.57
2023-01-22T03:09:15.345Z,1.23
2023-01-22T03:11:45.178Z,1.13
2023-01-22T03:14:32.637Z,1.32
2023-01-22T03:17:18.639Z,1.25
2023-01-22T03:20:04.286Z,1.41
2023-01-22T03:22:31.504Z,1.23
2023-01-22T03:25:00.428Z,1.31
2023-01-22T03:27:30.588Z,1.50
2023-01-22T03:29:58.299Z,1.48
2023-01-22T03:32:25.498Z,1.13
2023-01-22T03:34:53.682Z,1.14
2023-01-22T03:37:20.925Z,1.50
2023-01-22T03:39:48.200Z,1.47
2023-01-22T03:42:15.525Z,1.28
2023-01-22T03:44:42.671Z,1.39
2023-01-22T03:47:09.801Z,1.49
2023-01-22T03:49:36.915Z,1.50
2023-01-22T03:52:04.055Z,1.33
2023-01-22T03:54:31.239Z,1.16
2023-01-22T03:56:58.458Z,1.39
2023-01-22T03:59:25.608Z,1.39
2023-01-22T04:01:53.682Z,1.15
2023-01-22T04:04:21.636Z,1.41
2023-01-22T04:06:48.787Z,1.34
2023-01-22T04:09:16.130Z,1.18
2023-01-22T04:11:43.279Z,1.12
2023-01-22T04:14:10.392Z,1.10
2023-01-22T04:16:37.606Z,1.18
2023-01-22T04:19:04.849Z,1.04
2023-01-22T04:21:32.038Z,1.25
2023-01-22T04:23:59.172Z,1.13
2023-01-22T04:26:26.324Z,1.13
2023-01-22T04:28:53.439Z,1.35
2023-01-22T04:31:20.679Z,1.24
2023-01-22T04:33:47.909Z,1.23
2023-01-22T04:36:15.025Z,1.44
2023-01-22T04:38:42.154Z,1.43
2023-01-22T04:41:09.275Z,1.50
2023-01-22T04:43:36.395Z,1.14
2023-01-22T04:46:03.545Z,1.16
2023-01-22T04:48:30.712Z,1.26
2023-01-22T04:50:57.892Z,1.35
2023-01-22T04:53:25.027Z,1.18
2023-01-22T04:55:52.170Z,1.35
2023-01-22T04:58:19.314Z,1.49
2023-01-22T05:00:46.499Z,1.30
2023-01-22T05:03:13.687Z,1.22
2023-01-22T05:05:40.883Z,1.24
2023-01-22T05:08:08.054Z,1.28
2023-01-22T05:10:35.172Z,1.29
2023-01-22T05:13:04.889Z,1.31
2023-01-22T05:15:32.988Z,1.53
2023-01-22T05:18:00.377Z,1.33
2023-01-22T05:20:27.692Z,1.23
2023-01-22T05:22:54.833Z,1.20
2023-01-22T05:25:21.940Z,1.11
2023-01-22T05:27:49.058Z,1.20
2023-01-22T05:30:16.886Z,1.03
2023-01-22T05:32:44.245Z,1.14
2023-01-22T05:35:11.449Z,1.04
2023-01-22T05:37:38.577Z,1.01
2023-01-22T05:40:06.756Z,1.20
2023-01-22T05:42:33.901Z,1.05
2023-01-22T05:45:01.253Z,1.04
2023-01-22T05:47:28.414Z,1.07
2023-01-22T05:49:55.735Z,1.02
2023-01-22T05:52:22.867Z,1.10
2023-01-22T05:54:49.997Z,1.19
2023-01-22T05:57:17.105Z,1.13
2023-01-22T05:59:44.304Z,1.05
2023-01-22T06:02:11.462Z,1.13
2023-01-22T06:04:38.577Z,1.12
2023-01-22T06:07:05.683Z,1.23
2023-01-22T06:09:32.850Z,1.23
2023-01-22T06:12:00.005Z,1.35
2023-01-22T06:14:27.117Z,1.25
2023-01-22T06:16:54.394Z,1.04
2023-01-22T06:19:21.536Z,1.23
2023-01-22T06:21:48.655Z,1.18
2023-01-22T06:24:15.783Z,1.08
2023-01-22T06:26:43.056Z,1.28
2023-01-22T06:29:10.231Z,1.10
2023-01-22T06:31:37.416Z,1.22
2023-01-22T06:34:05.438Z,1.14
2023-01-22T06:36:32.743Z,1.40
2023-01-22T06:38:59.897Z,1.38
2023-01-22T06:41:27.086Z,1.34
2023-01-22T06:43:54.344Z,1.21
2023-01-22T06:46:21.527Z,1.38
2023-01-22T06:48:50.005Z,1.23
2023-01-22T06:51:17.290Z,1.14
2023-01-22T06:53:44.484Z,1.20
2023-01-22T06:56:11.589Z,1.15
2023-01-22T06:58:38.710Z,1.14
2023-01-22T07:01:06.421Z,1.36
2023-01-22T07:03:33.824Z,1.45
2023-01-22T07:06:03.945Z,1.33
2023-01-22T07:08:33.402Z,1.29
2023-01-22T07:11:01.018Z,1.52
2023-01-22T07:13:28.637Z,1.30
2023-01-22T07:15:56.115Z,1.25
2023-01-22T07:18:24.344Z,1.41
2023-01-22T07:20:51.531Z,1.19
2023-01-22T07:23:18.743Z,1.36
2023-01-22T07:25:46.344Z,1.28
2023-01-22T07:28:15.292Z,1.32
2023-01-22T07:30:43.807Z,1.28
2023-01-22T07:33:11.636Z,1.21
2023-01-22T07:35:39.494Z,1.38
2023-01-22T07:38:07.437Z,1.46
2023-01-22T07:40:35.252Z,1.42
2023-01-22T07:43:07.301Z,1.28
2023-01-22T07:45:35.419Z,1.42
2023-01-22T07:48:03.947Z,1.47
2023-01-22T07:50:31.943Z,1.42
2023-01-22T07:53:00.586Z,1.44
2023-01-22T07:55:28.427Z,1.65
2023-01-22T07:58:03.752Z,1.45
2023-01-22T08:00:35.240Z,1.48
2023-01-22T08:03:05.097Z,1.22
2023-01-22T08:05:32.671Z,1.33
2023-01-22T08:07:59.811Z,1.18
2023-01-22T08:10:27.365Z,1.22
2023-01-22T08:12:54.501Z,1.58
2023-01-22T08:15:22.313Z,1.43
2023-01-22T08:17:51.174Z,1.56
2023-01-22T08:20:19.216Z,1.50
2023-01-22T08:22:46.935Z,1.56
2023-01-22T08:25:14.671Z,1.37
2023-01-22T08:27:41.788Z,1.45
2023-01-22T08:30:13.335Z,1.62
2023-01-22T08:32:41.879Z,1.93
2023-01-22T08:35:09.791Z,1.72
2023-01-22T08:37:37.237Z,1.48
2023-01-22T08:40:06.373Z,1.42
2023-01-22T08:42:33.554Z,1.65
2023-01-22T08:45:00.731Z,1.60
2023-01-22T08:47:27.900Z,1.62
2023-01-22T08:49:55.033Z,1.72
2023-01-22T08:52:22.168Z,1.61
2023-01-22T08:54:49.301Z,1.83
2023-01-22T08:57:16.488Z,1.66
2023-01-22T08:59:52.597Z,1.59
2023-01-22T09:02:27.958Z,1.81
2023-01-22T09:04:55.131Z,1.67
2023-01-22T09:07:22.413Z,1.76
2023-01-22T09:09:49.575Z,1.80
2023-01-22T09:12:16.901Z,1.91
2023-01-22T09:14:44.033Z,1.94
2023-01-22T09:17:11.185Z,1.93
2023-01-22T09:19:38.343Z,2.07
2023-01-22T09:22:07.334Z,1.88
2023-01-22T09:24:34.459Z,1.94
2023-01-22T09:27:01.766Z,2.05
2023-01-22T09:29:28.872Z,2.19
2023-01-22T09:31:56.513Z,1.95
2023-01-22T09:34:23.696Z,1.86
2023-01-22T09:36:50.837Z,1.92
2023-01-22T09:39:18.425Z,2.06
2023-01-22T09:41:54.932Z,2.26
2023-01-22T09:44:39.985Z,2.06
2023-01-22T09:47:17.516Z,1.89
2023-01-22T09:49:50.277Z,2.14
2023-01-22T09:52:17.696Z,2.06
2023-01-22T09:54:44.911Z,2.21
2023-01-22T09:57:30.664Z,2.04
2023-01-22T09:59:59.320Z,2.14
2023-01-22T10:02:36.389Z,2.11
2023-01-22T10:05:39.625Z,2.27
2023-01-22T10:08:20.897Z,2.11
2023-01-22T10:10:50.840Z,2.34
2023-01-22T10:13:25.467Z,2.20
2023-01-22T10:15:55.542Z,2.29
2023-01-22T10:18:27.597Z,2.16
2023-01-22T10:20:57.981Z,2.19
2023-01-22T10:23:26.642Z,2.29
2023-01-22T10:26:04.320Z,2.02
2023-01-22T10:28:31.623Z,2.04
2023-01-22T10:30:59.099Z,1.98
2023-01-22T10:33:27.844Z,1.92
2023-01-22T10:35:56.792Z,1.96
2023-01-22T10:38:30.704Z,1.88
2023-01-22T10:41:02.711Z,2.19
2023-01-22T10:43:36.888Z,2.03
2023-01-22T10:46:27.212Z,2.01
2023-01-22T10:49:05.890Z,2.23
2023-01-22T10:51:40.281Z,2.12
2023-01-22T10:54:41.532Z,2.13
2023-01-22T10:57:27.401Z,2.02
2023-01-22T11:00:13.187Z,2.08
2023-01-22T11:02:46.695Z,1.96
2023-01-22T11:05:23.282Z,2.25
2023-01-22T11:07:57.917Z,2.08
2023-01-22T11:10:44.305Z,2.22
2023-01-22T11:13:35.042Z,2.12
2023-01-22T11:16:16.177Z,1.99
2023-01-22T11:18:45.863Z,2.25
2023-01-22T11:21:29.429Z,2.11
2023-01-22T11:24:37.618Z,2.11
2023-01-22T11:27:34.031Z,2.26
2023-01-22T11:30:51.755Z,2.13
2023-01-22T11:33:51.169Z,2.22
2023-01-22T11:36:46.428Z,2.27
2023-01-22T11:39:51.906Z,2.34
2023-01-22T11:42:55.305Z,2.41
2023-01-22T11:45:50.370Z,2.28
2023-01-22T11:48:36.945Z,2.38
2023-01-22T11:51:28.177Z,2.31
2023-01-22T11:54:12.023Z,2.31
2023-01-22T11:57:09.989Z,2.38
2023-01-22T12:00:21.806Z,2.33
2023-01-22T12:03:14.570Z,2.31
2023-01-22T12:06:23.276Z,2.35
2023-01-22T12:09:25.356Z,2.38
2023-01-22T12:12:16.546Z,2.38
2023-01-22T12:15:12.495Z,2.54
2023-01-22T12:18:09.000Z,2.43
2023-01-22T12:21:10.274Z,2.59
2023-01-22T12:23:53.881Z,2.45
2023-01-22T12:26:29.637Z,2.37
2023-01-22T12:29:19.677Z,2.39
2023-01-22T12:32:15.139Z,2.55
2023-01-22T12:35:07.493Z,2.57
2023-01-22T12:37:47.693Z,2.44
2023-01-22T12:40:43.018Z,2.46
2023-01-22T12:43:13.215Z,2.42
2023-01-22T12:46:17.748Z,2.39
2023-01-22T12:48:54.639Z,2.35
2023-01-22T12:51:36.350Z,2.40
2023-01-22T12:54:27.702Z,2.31
2023-01-22T12:57:21.220Z,2.41
2023-01-22T12:59:52.459Z,2.31
2023-01-22T13:02:35.622Z,2.43
2023-01-22T13:05:18.503Z,2.33
2023-01-22T13:07:46.826Z,2.26
2023-01-22T13:10:20.511Z,2.27
2023-01-22T13:12:54.871Z,2.32
2023-01-22T13:15:32.618Z,2.29
2023-01-22T13:18:12.829Z,2.17
2023-01-22T13:21:02.980Z,2.17
2023-01-22T13:23:40.503Z,2.34
2023-01-22T13:26:15.182Z,2.41
2023-01-22T13:28:52.545Z,2.34
2023-01-22T13:31:20.116Z,2.46
2023-01-22T13:34:00.734Z,2.23
2023-01-22T13:36:28.412Z,2.28
2023-01-22T13:38:59.043Z,2.31
2023-01-22T13:41:32.456Z,2.25
2023-01-22T13:44:00.473Z,2.25
2023-01-22T13:46:28.673Z,2.24
2023-01-22T13:49:25.118Z,2.30
2023-01-22T13:51:53.435Z,2.35
2023-01-22T13:54:26.974Z,2.34
2023-01-22T13:56:54.212Z,2.29
2023-01-22T13:59:27.380Z,2.22
2023-01-22T14:01:54.540Z,2.27
2023-01-22T14:04:35.359Z,2.24
2023-01-22T14:07:04.958Z,2.25
2023-01-22T14:09:38.887Z,2.16
2023-01-22T14:12:16.912Z,2.23
2023-01-22T14:14:44.796Z,2.22
2023-01-22T14:17:28.637Z,2.20
2023-01-22T14:19:58.680Z,2.16
2023-01-22T14:22:26.497Z,2.23
2023-01-22T14:24:54.680Z,2.08
2023-01-22T14:27:45.873Z,2.17
2023-01-22T14:30:17.981Z,2.15
2023-01-22T14:32:45.958Z,2.17
2023-01-22T14:35:23.473Z,2.22
2023-01-22T14:37:53.152Z,2.31
2023-01-22T14:40:24.374Z,2.42
2023-01-22T14:42:52.559Z,2.31
2023-01-22T14:45:21.009Z,2.36
2023-01-22T14:47:53.225Z,2.27
2023-01-22T14:50:21.857Z,2.51
2023-01-22T14:52:53.586Z,2.19
2023-01-22T14:55:21.219Z,2.39
2023-01-22T14:57:48.573Z,2.25
2023-01-22T15:00:19.087Z,2.39
2023-01-22T15:02:47.759Z,2.28
2023-01-22T15:05:15.351Z,2.28
2023-01-22T15:07:43.441Z,2.18
2023-01-22T15:10:12.085Z,2.40
2023-01-22T15:12:39.261Z,2.29
2023-01-22T15:15:08.893Z,2.25
2023-01-22T15:17:36.381Z,2.37
2023-01-22T15:20:04.656Z,2.35
2023-01-22T15:22:31.809Z,2.23
2023-01-22T15:25:00.067Z,2.19
2023-01-22T15:27:27.203Z,2.28
2023-01-22T15:29:54.442Z,2.24
2023-01-22T15:32:21.590Z,2.27
2023-01-22T15:34:48.800Z,2.24
2023-01-22T15:37:15.983Z,2.33
2023-01-22T15:39:43.130Z,2.22
2023-01-22T15:42:10.303Z,2.35
2023-01-22T15:44:38.533Z,2.25
2023-01-22T15:47:06.308Z,2.27
2023-01-22T15:49:34.765Z,2.28
2023-01-22T15:52:02.297Z,2.22
2023-01-22T15:54:29.437Z,2.27
2023-01-22T15:56:57.064Z,2.29
2023-01-22T15:59:24.419Z,2.25
2023-01-22T16:01:52.402Z,2.20
2023-01-22T16:04:19.714Z,2.25
2023-01-22T16:06:46.906Z,2.15
2023-01-22T16:09:14.059Z,2.26
2023-01-22T16:11:41.219Z,2.29
2023-01-22T16:14:08.476Z,2.19
2023-01-22T16:16:37.930Z,2.40
2023-01-22T16:19:07.953Z,2.31
2023-01-22T16:21:36.280Z,2.21
2023-01-22T16:24:04.086Z,2.18
2023-01-22T16:26:34.712Z,2.30
2023-01-22T16:29:05.741Z,2.26
2023-01-22T16:31:36.360Z,2.30
2023-01-22T16:34:21.604Z,2.28
2023-01-22T16:36:49.207Z,2.29
2023-01-22T16:39:22.932Z,2.23
2023-01-22T16:41:51.840Z,2.25
2023-01-22T16:44:26.293Z,2.35
2023-01-22T16:46:57.559Z,2.35
2023-01-22T16:49:29.548Z,2.07
2023-01-22T16:52:10.203Z,2.05
2023-01-22T16:54:48.073Z,2.05
2023-01-22T16:57:15.583Z,2.08
2023-01-22T16:59:42.735Z,2.18
2023-01-22T17:02:16.116Z,2.31
2023-01-22T17:04:43.346Z,2.14
2023-01-22T17:07:27.407Z,2.20
2023-01-22T17:09:59.126Z,2.15
2023-01-22T17:12:26.826Z,2.16
2023-01-22T17:14:54.007Z,2.14
2023-01-22T17:17:21.142Z,2.25
2023-01-22T17:19:48.313Z,2.17
2023-01-22T17:22:15.588Z,2.25
2023-01-22T17:24:42.904Z,2.14
2023-01-22T17:27:12.040Z,2.08
2023-01-22T17:29:39.230Z,2.12
2023-01-22T17:32:07.436Z,2.24
2023-01-22T17:34:36.221Z,2.02
2023-01-22T17:37:08.605Z,2.03
2023-01-22T17:39:36.057Z,2.07
2023-01-22T17:42:03.444Z,2.13
2023-01-22T17:44:30.624Z,2.06
2023-01-22T17:47:00.017Z,2.17
2023-01-22T17:49:27.149Z,2.10
2023-01-22T17:51:54.299Z,2.21
2023-01-22T17:54:21.782Z,2.19
2023-01-22T17:56:48.978Z,2.11
2023-01-22T17:59:16.315Z,2.16
2023-01-22T18:01:45.032Z,2.16
2023-01-22T18:04:13.930Z,2.16
2023-01-22T18:06:43.750Z,2.18
2023-01-22T18:09:12.003Z,2.07
2023-01-22T18:11:40.831Z,2.29
2023-01-22T18:14:16.622Z,2.17
2023-01-22T18:16:45.516Z,2.14
2023-01-22T18:19:12.654Z,2.07
2023-01-22T18:21:40.472Z,2.05
2023-01-22T18:24:10.745Z,2.13
2023-01-22T18:26:38.812Z,2.17
2023-01-22T18:29:06.582Z,2.21
2023-01-22T18:31:34.256Z,2.05
2023-01-22T18:34:04.706Z,2.29
2023-01-22T18:36:38.203Z,2.18
2023-01-22T18:39:11.396Z,2.07
2023-01-22T18:41:40.635Z,2.12
2023-01-22T18:44:09.881Z,2.21
2023-01-22T18:46:39.092Z,2.25
2023-01-22T18:49:12.499Z,2.01
2023-01-22T18:51:41.917Z,2.09
2023-01-22T18:54:09.261Z,2.28
2023-01-22T18:56:37.738Z,2.24
2023-01-22T18:59:05.738Z,2.21
2023-01-22T19:01:37.986Z,2.27
2023-01-22T19:04:11.708Z,2.26
2023-01-22T19:06:39.158Z,2.24
2023-01-22T19:09:14.154Z,2.16
2023-01-22T19:11:46.932Z,2.33
2023-01-22T19:14:17.697Z,2.26
2023-01-22T19:16:48.298Z,2.25
2023-01-22T19:19:17.086Z,2.17
2023-01-22T19:21:49.049Z,2.12
2023-01-22T19:24:22.141Z,2.22
2023-01-22T19:26:51.284Z,2.27
2023-01-22T19:29:19.858Z,2.38
2023-01-22T19:31:51.943Z,2.17
2023-01-22T19:34:24.958Z,2.28
2023-01-22T19:36:55.134Z,2.13
2023-01-22T19:39:25.243Z,2.26
2023-01-22T19:41:52.444Z,2.24
2023-01-22T19:44:20.373Z,2.41
2023-01-22T19:46:47.570Z,2.40
2023-01-22T19:49:14.899Z,2.47
2023-01-22T19:51:42.129Z,2.45
2023-01-22T19:54:10.153Z,2.39
2023-01-22T19:56:39.403Z,2.37
2023-01-22T19:59:15.942Z,2.41
2023-01-22T20:01:46.050Z,2.19
2023-01-22T20:04:21.400Z,2.23
2023-01-22T20:06:51.811Z,2.28
2023-01-22T20:09:21.645Z,2.25
2023-01-22T20:11:53.586Z,2.21
2023-01-22T20:14:30.222Z,2.15
2023-01-22T20:16:58.933Z,2.22
2023-01-22T20:19:26.818Z,2.17
2023-01-22T20:21:54.002Z,2.12
2023-01-22T20:24:21.146Z,2.20
2023-01-22T20:26:48.261Z,2.13
2023-01-22T20:29:15.975Z,2.11
2023-01-22T20:31:44.288Z,2.26
2023-01-22T20:34:11.543Z,2.10
2023-01-22T20:36:38.660Z,2.16
2023-01-22T20:39:06.022Z,2.29
2023-01-22T20:41:34.435Z,2.25
2023-01-22T20:44:01.885Z,2.26
2023-01-22T20:46:29.163Z,2.35
2023-01-22T20:48:58.143Z,2.20
2023-01-22T20:51:28.691Z,2.34
2023-01-22T20:53:57.515Z,2.37
2023-01-22T20:56:32.505Z,2.47
2023-01-22T20:59:17.253Z,2.50
2023-01-22T21:01:44.877Z,2.56
2023-01-22T21:04:13.869Z,2.64
2023-01-22T21:06:42.418Z,2.61
2023-01-22T21:09:10.933Z,2.61
2023-01-22T21:11:40.964Z,2.59
2023-01-22T21:14:12.678Z,2.65
2023-01-22T21:16:40.433Z,2.59
2023-01-22T21:19:16.574Z,2.68
2023-01-22T21:21:44.234Z,2.74
2023-01-22T21:24:11.840Z,2.47
2023-01-22T21:26:39.976Z,2.65
2023-01-22T21:29:13.026Z,2.66
2023-01-22T21:31:40.529Z,2.53
2023-01-22T21:34:08.618Z,2.53
2023-01-22T21:36:43.444Z,2.57
2023-01-22T21:39:16.933Z,2.60
2023-01-22T21:41:44.835Z,2.62
2023-01-22T21:44:38.239Z,2.66
2023-01-22T21:47:05.836Z,2.54
2023-01-22T21:49:34.763Z,2.59
2023-01-22T21:52:05.903Z,2.39
2023-01-22T21:54:41.106Z,2.16
2023-01-22T21:57:14.049Z,2.21
2023-01-22T21:59:41.422Z,2.11
2023-01-22T22:02:15.257Z,2.11
2023-01-22T22:04:42.684Z,2.23
2023-01-22T22:07:10.076Z,2.33
2023-01-22T22:09:37.247Z,2.06
2023-01-22T22:12:04.892Z,2.40
2023-01-22T22:14:32.909Z,2.51
2023-01-22T22:17:00.126Z,2.19
2023-01-22T22:19:28.747Z,2.17
2023-01-22T22:21:55.936Z,2.12
2023-01-22T22:24:23.183Z,2.24
2023-01-22T22:26:50.494Z,2.23
2023-01-22T22:29:17.665Z,2.21
2023-01-22T22:31:45.014Z,2.16
2023-01-22T22:34:12.246Z,2.18
2023-01-22T22:36:39.500Z,2.12
2023-01-22T22:39:06.839Z,2.11
2023-01-22T22:41:37.007Z,2.09
2023-01-22T22:44:05.247Z,2.13
2023-01-22T22:46:36.498Z,2.06
2023-01-22T22:49:04.991Z,2.18
2023-01-22T22:51:36.645Z,2.05
2023-01-22T22:54:08.034Z,2.17
2023-01-22T22:56:35.456Z,2.15
2023-01-22T22:59:04.045Z,2.05
2023-01-22T23:01:33.055Z,2.15
2023-01-22T23:04:01.248Z,2.21
2023-01-22T23:06:32.375Z,2.29
2023-01-22T23:09:01.059Z,2.15
2023-01-22T23:11:32.472Z,2.14
2023-01-22T23:14:02.443Z,2.29
2023-01-22T23:16:38.001Z,2.19
2023-01-22T23:19:12.649Z,2.22
2023-01-22T23:21:42.574Z,2.16
2023-01-22T23:24:12.639Z,2.17
2023-01-22T23:26:43.477Z,2.23
2023-01-22T23:29:15.007Z,2.07
2023-01-22T23:31:42.411Z,1.99
2023-01-22T23:34:16.884Z,2.18
2023-01-22T23:36:46.293Z,2.19
2023-01-22T23:39:16.928Z,2.16
2023-01-22T23:41:45.247Z,2.25
2023-01-22T23:44:12.539Z,2.21
2023-01-22T23:46:40.629Z,2.19
2023-01-22T23:49:07.999Z,2.23
2023-01-22T23:51:36.703Z,2.37
2023-01-22T23:54:03.979Z,2.25
2023-01-22T23:56:31.738Z,2.34
2023-01-22T23:58:59.895Z,2.18
